AUL508 ULMM-ULLI
Flight info
| Callsign | AUL508 |
|---|---|
| Flight time | N/A |
| Altitude | 37000 |
| Route | ASGOR1P ASGOR T693 PILAN M856 KUKUM/K0839F360 M856 GIKUR T458 BEPOL BEPOL1V |
| Aircraft | B738/M-SDE2E3FGHIRWXY/LB1 |
Departure
| Time | 2026-04-22 11:25 |
|---|---|
| Airport | Emperor Nicholas II Murmansk Airport (ULMM) |
Arrival
| Time | N/A |
|---|---|
| Airport | Pulkovo Airport (ULLI) |
| Time | Latitude | Longitude | Altitude | Speed | Heading |
|---|---|---|---|---|---|
| 2026-04-22 10:58 | 68.78377 | 32.75661 | 270 ft | 0 kts | 146° |
| 2026-04-22 11:16 | 68.78393 | 32.75631 | 270 ft | 4 kts | 146° |
| 2026-04-22 11:17 | 68.78410 | 32.75602 | 270 ft | 2 kts | 162° |
| 2026-04-22 11:17 | 68.78421 | 32.75600 | 272 ft | 2 kts | 215° |
| 2026-04-22 11:17 | 68.78429 | 32.75621 | 276 ft | 2 kts | 232° |
| 2026-04-22 11:17 | 68.78432 | 32.75632 | 277 ft | 0 kts | 234° |
| 2026-04-22 11:19 | 68.78417 | 32.75569 | 272 ft | 8 kts | 237° |
| 2026-04-22 11:19 | 68.78402 | 32.75507 | 270 ft | 11 kts | 237° |
| 2026-04-22 11:20 | 68.78353 | 32.75304 | 270 ft | 17 kts | 236° |
| 2026-04-22 11:20 | 68.78267 | 32.75092 | 271 ft | 17 kts | 186° |
| 2026-04-22 11:20 | 68.78163 | 32.75222 | 269 ft | 16 kts | 146° |
| 2026-04-22 11:20 | 68.78069 | 32.75394 | 269 ft | 16 kts | 147° |
| 2026-04-22 11:21 | 68.77979 | 32.75560 | 271 ft | 15 kts | 146° |
| 2026-04-22 11:21 | 68.77893 | 32.75720 | 272 ft | 15 kts | 146° |
| 2026-04-22 11:21 | 68.77810 | 32.75872 | 271 ft | 14 kts | 146° |
| 2026-04-22 11:21 | 68.77732 | 32.76016 | 270 ft | 13 kts | 146° |
| 2026-04-22 11:22 | 68.77656 | 32.76155 | 274 ft | 13 kts | 146° |
| 2026-04-22 11:22 | 68.77583 | 32.76291 | 273 ft | 13 kts | 147° |
| 2026-04-22 11:22 | 68.77511 | 32.76422 | 273 ft | 12 kts | 146° |
| 2026-04-22 11:22 | 68.77441 | 32.76551 | 275 ft | 12 kts | 145° |
| 2026-04-22 11:23 | 68.77376 | 32.76690 | 272 ft | 12 kts | 142° |
| 2026-04-22 11:23 | 68.77312 | 32.76842 | 274 ft | 13 kts | 143° |
| 2026-04-22 11:23 | 68.77292 | 32.76862 | 273 ft | 0 kts | 174° |
| 2026-04-22 11:23 | 68.77290 | 32.76850 | 273 ft | 1 kts | 236° |
| 2026-04-22 11:24 | 68.77297 | 32.76823 | 273 ft | 3 kts | 320° |
| 2026-04-22 11:24 | 68.77349 | 32.76721 | 276 ft | 16 kts | 327° |
| 2026-04-22 11:24 | 68.77611 | 32.76240 | 272 ft | 81 kts | 326° |
| 2026-04-22 11:24 | 68.78273 | 32.75019 | 273 ft | 145 kts | 326° |
| 2026-04-22 11:25 | 68.79167 | 32.73362 | 853 ft | 153 kts | 328° |
| 2026-04-22 11:25 | 68.79824 | 32.71231 | 2087 ft | 154 kts | 301° |
| 2026-04-22 11:25 | 68.79883 | 32.67977 | 2633 ft | 195 kts | 267° |
| 2026-04-22 11:25 | 68.79117 | 32.64386 | 2882 ft | 241 kts | 229° |
| 2026-04-22 11:26 | 68.77527 | 32.62334 | 3139 ft | 275 kts | 188° |
| 2026-04-22 11:26 | 68.75548 | 32.62792 | 3521 ft | 295 kts | 165° |
| 2026-04-22 11:26 | 68.73538 | 32.64212 | 4333 ft | 301 kts | 161° |
| 2026-04-22 11:26 | 68.71507 | 32.65700 | 5212 ft | 303 kts | 162° |
| 2026-04-22 11:27 | 68.69448 | 32.67089 | 6080 ft | 306 kts | 164° |
| 2026-04-22 11:27 | 68.67355 | 32.68373 | 6917 ft | 309 kts | 165° |
| 2026-04-22 11:27 | 68.65238 | 32.69580 | 7758 ft | 311 kts | 166° |
| 2026-04-22 11:27 | 68.63103 | 32.70740 | 8584 ft | 314 kts | 167° |
| 2026-04-22 11:28 | 68.60947 | 32.71880 | 9429 ft | 317 kts | 167° |
| 2026-04-22 11:28 | 68.58758 | 32.73020 | 10066 ft | 327 kts | 167° |
| 2026-04-22 11:28 | 68.56445 | 32.74219 | 10386 ft | 347 kts | 167° |
| 2026-04-22 11:28 | 68.54049 | 32.75451 | 11062 ft | 353 kts | 167° |
| 2026-04-22 11:29 | 68.51624 | 32.76636 | 11858 ft | 356 kts | 171° |
| 2026-04-22 11:29 | 68.49136 | 32.76810 | 12648 ft | 360 kts | 182° |
| 2026-04-22 11:29 | 68.46624 | 32.76384 | 13434 ft | 364 kts | 183° |
| 2026-04-22 11:29 | 68.44090 | 32.75949 | 14098 ft | 368 kts | 182° |
| 2026-04-22 11:30 | 68.41507 | 32.75599 | 14766 ft | 372 kts | 180° |
| 2026-04-22 11:30 | 68.38905 | 32.75506 | 15408 ft | 377 kts | 178° |
| 2026-04-22 11:30 | 68.36265 | 32.75571 | 16053 ft | 382 kts | 177° |
| 2026-04-22 11:30 | 68.33589 | 32.75678 | 16695 ft | 387 kts | 177° |
| 2026-04-22 11:31 | 68.30877 | 32.75778 | 17352 ft | 392 kts | 177° |
| 2026-04-22 11:31 | 68.28133 | 32.75860 | 17986 ft | 397 kts | 177° |
| 2026-04-22 11:31 | 68.25358 | 32.75924 | 18509 ft | 402 kts | 177° |
| 2026-04-22 11:31 | 68.77586 | 32.76285 | 273 ft | 0 kts | 147° |